sensor_id;sensor_type;location;lat;lon;timestamp;P1;durP1;ratioP1;P2;durP2;ratioP2
69985;SDS011;57328;52.054;5.294;2022-07-23T00:01:40;2.05;;;1.13;;
69985;SDS011;57328;52.054;5.294;2022-07-23T00:04:07;3.55;;;1.70;;
69985;SDS011;57328;52.054;5.294;2022-07-23T00:06:34;3.95;;;1.63;;
69985;SDS011;57328;52.054;5.294;2022-07-23T00:09:01;5.95;;;1.75;;
69985;SDS011;57328;52.054;5.294;2022-07-23T00:11:29;3.25;;;1.67;;
69985;SDS011;57328;52.054;5.294;2022-07-23T00:13:57;3.20;;;1.50;;
69985;SDS011;57328;52.054;5.294;2022-07-23T00:16:24;4.63;;;2.03;;
69985;SDS011;57328;52.054;5.294;2022-07-23T00:18:52;4.43;;;1.50;;
69985;SDS011;57328;52.054;5.294;2022-07-23T00:21:19;3.78;;;1.48;;
69985;SDS011;57328;52.054;5.294;2022-07-23T00:23:46;5.00;;;1.25;;
69985;SDS011;57328;52.054;5.294;2022-07-23T00:26:13;4.53;;;1.65;;
69985;SDS011;57328;52.054;5.294;2022-07-23T00:28:40;3.85;;;1.70;;
69985;SDS011;57328;52.054;5.294;2022-07-23T00:31:07;3.10;;;1.50;;
69985;SDS011;57328;52.054;5.294;2022-07-23T00:33:35;3.30;;;1.38;;
69985;SDS011;57328;52.054;5.294;2022-07-23T00:36:02;2.50;;;1.27;;
69985;SDS011;57328;52.054;5.294;2022-07-23T00:38:29;3.03;;;1.73;;
69985;SDS011;57328;52.054;5.294;2022-07-23T00:40:56;4.05;;;1.40;;
69985;SDS011;57328;52.054;5.294;2022-07-23T00:43:23;4.30;;;1.40;;
69985;SDS011;57328;52.054;5.294;2022-07-23T00:45:51;3.78;;;1.58;;
69985;SDS011;57328;52.054;5.294;2022-07-23T00:48:18;3.33;;;1.52;;
69985;SDS011;57328;52.054;5.294;2022-07-23T00:50:45;2.92;;;1.60;;
69985;SDS011;57328;52.054;5.294;2022-07-23T00:53:12;3.15;;;1.33;;
69985;SDS011;57328;52.054;5.294;2022-07-23T00:55:40;2.97;;;1.25;;
69985;SDS011;57328;52.054;5.294;2022-07-23T00:58:07;1.23;;;0.68;;
69985;SDS011;57328;52.054;5.294;2022-07-23T01:03:02;3.85;;;0.90;;
69985;SDS011;57328;52.054;5.294;2022-07-23T01:05:30;4.43;;;1.48;;
69985;SDS011;57328;52.054;5.294;2022-07-23T01:07:57;3.55;;;1.10;;
69985;SDS011;57328;52.054;5.294;2022-07-23T01:10:25;3.22;;;1.42;;
69985;SDS011;57328;52.054;5.294;2022-07-23T01:15:26;3.08;;;1.30;;
69985;SDS011;57328;52.054;5.294;2022-07-23T01:17:53;2.10;;;1.02;;
69985;SDS011;57328;52.054;5.294;2022-07-23T01:20:21;4.93;;;1.65;;
69985;SDS011;57328;52.054;5.294;2022-07-23T01:26:17;3.45;;;1.52;;
69985;SDS011;57328;52.054;5.294;2022-07-23T01:28:44;3.40;;;1.67;;
69985;SDS011;57328;52.054;5.294;2022-07-23T01:31:12;5.43;;;1.60;;
69985;SDS011;57328;52.054;5.294;2022-07-23T01:33:39;3.72;;;1.50;;
69985;SDS011;57328;52.054;5.294;2022-07-23T01:36:06;5.75;;;2.03;;
69985;SDS011;57328;52.054;5.294;2022-07-23T01:38:33;3.10;;;1.05;;
69985;SDS011;57328;52.054;5.294;2022-07-23T01:41:01;8.27;;;1.73;;
69985;SDS011;57328;52.054;5.294;2022-07-23T01:43:28;4.05;;;1.30;;
69985;SDS011;57328;52.054;5.294;2022-07-23T01:45:55;5.97;;;1.70;;
69985;SDS011;57328;52.054;5.294;2022-07-23T01:48:22;5.05;;;1.70;;
69985;SDS011;57328;52.054;5.294;2022-07-23T01:50:50;3.50;;;1.33;;
69985;SDS011;57328;52.054;5.294;2022-07-23T01:53:17;2.58;;;1.30;;
69985;SDS011;57328;52.054;5.294;2022-07-23T01:55:44;3.40;;;1.60;;
69985;SDS011;57328;52.054;5.294;2022-07-23T01:58:11;2.25;;;1.40;;
69985;SDS011;57328;52.054;5.294;2022-07-23T02:00:38;2.53;;;1.38;;
69985;SDS011;57328;52.054;5.294;2022-07-23T02:03:08;2.40;;;1.17;;
69985;SDS011;57328;52.054;5.294;2022-07-23T02:05:35;2.55;;;1.35;;
69985;SDS011;57328;52.054;5.294;2022-07-23T02:08:03;1.98;;;1.38;;
69985;SDS011;57328;52.054;5.294;2022-07-23T02:10:30;3.95;;;1.70;;
69985;SDS011;57328;52.054;5.294;2022-07-23T02:12:57;5.45;;;2.40;;
69985;SDS011;57328;52.054;5.294;2022-07-23T02:15:24;3.80;;;1.63;;
69985;SDS011;57328;52.054;5.294;2022-07-23T02:17:51;3.72;;;1.60;;
69985;SDS011;57328;52.054;5.294;2022-07-23T02:20:19;1.95;;;1.08;;
69985;SDS011;57328;52.054;5.294;2022-07-23T02:22:46;5.95;;;2.65;;
69985;SDS011;57328;52.054;5.294;2022-07-23T02:25:13;3.13;;;1.67;;
69985;SDS011;57328;52.054;5.294;2022-07-23T02:27:40;4.22;;;2.08;;
69985;SDS011;57328;52.054;5.294;2022-07-23T02:30:07;3.20;;;1.88;;
69985;SDS011;57328;52.054;5.294;2022-07-23T02:32:35;4.18;;;1.63;;
69985;SDS011;57328;52.054;5.294;2022-07-23T02:35:03;3.13;;;1.40;;
69985;SDS011;57328;52.054;5.294;2022-07-23T02:37:30;4.25;;;1.60;;
69985;SDS011;57328;52.054;5.294;2022-07-23T02:40:00;2.35;;;1.40;;
69985;SDS011;57328;52.054;5.294;2022-07-23T02:42:28;5.70;;;1.90;;
69985;SDS011;57328;52.054;5.294;2022-07-23T02:44:55;5.15;;;1.90;;
69985;SDS011;57328;52.054;5.294;2022-07-23T02:47:22;4.70;;;1.67;;
69985;SDS011;57328;52.054;5.294;2022-07-23T02:49:49;4.53;;;1.92;;
69985;SDS011;57328;52.054;5.294;2022-07-23T02:52:16;6.00;;;1.38;;
69985;SDS011;57328;52.054;5.294;2022-07-23T02:54:44;4.15;;;1.38;;
69985;SDS011;57328;52.054;5.294;2022-07-23T02:57:11;4.97;;;1.40;;
69985;SDS011;57328;52.054;5.294;2022-07-23T02:59:38;2.33;;;1.02;;
69985;SDS011;57328;52.054;5.294;2022-07-23T03:02:05;3.45;;;1.10;;
69985;SDS011;57328;52.054;5.294;2022-07-23T03:04:32;3.13;;;1.30;;
69985;SDS011;57328;52.054;5.294;2022-07-23T03:06:59;3.22;;;1.58;;
69985;SDS011;57328;52.054;5.294;2022-07-23T03:09:27;2.50;;;1.10;;
69985;SDS011;57328;52.054;5.294;2022-07-23T03:11:54;2.33;;;1.10;;
69985;SDS011;57328;52.054;5.294;2022-07-23T03:14:21;3.15;;;1.08;;
69985;SDS011;57328;52.054;5.294;2022-07-23T03:16:48;4.18;;;1.63;;
69985;SDS011;57328;52.054;5.294;2022-07-23T03:19:16;3.15;;;1.13;;
69985;SDS011;57328;52.054;5.294;2022-07-23T03:21:43;4.63;;;1.60;;
69985;SDS011;57328;52.054;5.294;2022-07-23T03:24:10;2.83;;;1.50;;
69985;SDS011;57328;52.054;5.294;2022-07-23T03:26:38;3.60;;;1.42;;
69985;SDS011;57328;52.054;5.294;2022-07-23T03:29:05;3.45;;;1.23;;
69985;SDS011;57328;52.054;5.294;2022-07-23T03:31:33;4.00;;;1.90;;
69985;SDS011;57328;52.054;5.294;2022-07-23T03:34:00;3.03;;;1.60;;
69985;SDS011;57328;52.054;5.294;2022-07-23T03:36:27;1.67;;;0.88;;
69985;SDS011;57328;52.054;5.294;2022-07-23T03:38:56;2.08;;;1.25;;
69985;SDS011;57328;52.054;5.294;2022-07-23T03:41:26;7.28;;;2.00;;
69985;SDS011;57328;52.054;5.294;2022-07-23T03:43:53;3.10;;;1.70;;
69985;SDS011;57328;52.054;5.294;2022-07-23T03:46:20;3.72;;;1.90;;
69985;SDS011;57328;52.054;5.294;2022-07-23T03:48:49;5.22;;;1.67;;
69985;SDS011;57328;52.054;5.294;2022-07-23T03:51:23;4.35;;;2.20;;
69985;SDS011;57328;52.054;5.294;2022-07-23T03:53:50;4.35;;;1.95;;
69985;SDS011;57328;52.054;5.294;2022-07-23T03:56:17;3.95;;;1.80;;
69985;SDS011;57328;52.054;5.294;2022-07-23T03:58:44;4.07;;;1.70;;
69985;SDS011;57328;52.054;5.294;2022-07-23T04:01:12;2.40;;;1.40;;
69985;SDS011;57328;52.054;5.294;2022-07-23T04:03:39;3.45;;;1.45;;
69985;SDS011;57328;52.054;5.294;2022-07-23T04:06:06;3.30;;;1.92;;
69985;SDS011;57328;52.054;5.294;2022-07-23T04:08:33;3.85;;;1.48;;
69985;SDS011;57328;52.054;5.294;2022-07-23T04:11:00;3.90;;;1.23;;
69985;SDS011;57328;52.054;5.294;2022-07-23T04:13:27;4.25;;;1.60;;
69985;SDS011;57328;52.054;5.294;2022-07-23T04:15:54;5.32;;;1.75;;
69985;SDS011;57328;52.054;5.294;2022-07-23T04:18:22;3.22;;;1.40;;
69985;SDS011;57328;52.054;5.294;2022-07-23T04:20:52;4.07;;;1.65;;
69985;SDS011;57328;52.054;5.294;2022-07-23T04:23:20;2.78;;;1.48;;
69985;SDS011;57328;52.054;5.294;2022-07-23T04:25:47;4.22;;;1.75;;
69985;SDS011;57328;52.054;5.294;2022-07-23T04:28:14;3.72;;;1.70;;
69985;SDS011;57328;52.054;5.294;2022-07-23T04:30:41;3.08;;;1.75;;
69985;SDS011;57328;52.054;5.294;2022-07-23T04:33:08;2.35;;;1.27;;
69985;SDS011;57328;52.054;5.294;2022-07-23T04:35:35;2.85;;;1.45;;
69985;SDS011;57328;52.054;5.294;2022-07-23T04:38:03;4.55;;;2.10;;
69985;SDS011;57328;52.054;5.294;2022-07-23T04:40:31;3.08;;;1.80;;
69985;SDS011;57328;52.054;5.294;2022-07-23T04:42:58;3.95;;;2.05;;
69985;SDS011;57328;52.054;5.294;2022-07-23T04:45:26;3.78;;;1.73;;
69985;SDS011;57328;52.054;5.294;2022-07-23T04:47:55;5.22;;;2.13;;
69985;SDS011;57328;52.054;5.294;2022-07-23T04:52:50;4.97;;;2.50;;
69985;SDS011;57328;52.054;5.294;2022-07-23T04:55:17;5.53;;;2.03;;
69985;SDS011;57328;52.054;5.294;2022-07-23T04:57:44;2.70;;;1.45;;
69985;SDS011;57328;52.054;5.294;2022-07-23T05:00:12;2.97;;;1.88;;
69985;SDS011;57328;52.054;5.294;2022-07-23T05:02:39;3.42;;;2.08;;
69985;SDS011;57328;52.054;5.294;2022-07-23T05:05:06;3.72;;;1.70;;
69985;SDS011;57328;52.054;5.294;2022-07-23T05:07:34;4.20;;;2.10;;
69985;SDS011;57328;52.054;5.294;2022-07-23T05:10:01;4.72;;;2.40;;
69985;SDS011;57328;52.054;5.294;2022-07-23T05:12:28;4.60;;;2.30;;
69985;SDS011;57328;52.054;5.294;2022-07-23T05:14:55;5.07;;;2.50;;
69985;SDS011;57328;52.054;5.294;2022-07-23T05:17:22;6.45;;;2.45;;
69985;SDS011;57328;52.054;5.294;2022-07-23T05:19:49;4.88;;;2.30;;
69985;SDS011;57328;52.054;5.294;2022-07-23T05:22:23;5.88;;;2.60;;
69985;SDS011;57328;52.054;5.294;2022-07-23T05:24:50;6.00;;;2.72;;
69985;SDS011;57328;52.054;5.294;2022-07-23T05:27:17;5.05;;;2.63;;
69985;SDS011;57328;52.054;5.294;2022-07-23T05:29:52;6.15;;;2.60;;
69985;SDS011;57328;52.054;5.294;2022-07-23T05:32:20;5.85;;;2.45;;
69985;SDS011;57328;52.054;5.294;2022-07-23T05:34:47;5.55;;;2.63;;
69985;SDS011;57328;52.054;5.294;2022-07-23T05:37:14;5.47;;;2.50;;
69985;SDS011;57328;52.054;5.294;2022-07-23T05:39:41;7.00;;;2.50;;
69985;SDS011;57328;52.054;5.294;2022-07-23T05:42:08;4.50;;;2.45;;
69985;SDS011;57328;52.054;5.294;2022-07-23T05:44:35;6.90;;;2.42;;
69985;SDS011;57328;52.054;5.294;2022-07-23T05:47:03;5.38;;;2.70;;
69985;SDS011;57328;52.054;5.294;2022-07-23T05:49:30;5.32;;;2.40;;
69985;SDS011;57328;52.054;5.294;2022-07-23T05:51:57;4.60;;;2.50;;
69985;SDS011;57328;52.054;5.294;2022-07-23T05:54:25;4.22;;;2.28;;
69985;SDS011;57328;52.054;5.294;2022-07-23T05:56:52;4.47;;;2.20;;
69985;SDS011;57328;52.054;5.294;2022-07-23T05:59:20;4.80;;;2.17;;
69985;SDS011;57328;52.054;5.294;2022-07-23T06:01:47;4.90;;;2.35;;
69985;SDS011;57328;52.054;5.294;2022-07-23T06:04:14;4.43;;;2.50;;
69985;SDS011;57328;52.054;5.294;2022-07-23T06:06:42;4.45;;;2.40;;
69985;SDS011;57328;52.054;5.294;2022-07-23T06:09:09;4.32;;;2.25;;
69985;SDS011;57328;52.054;5.294;2022-07-23T06:11:39;4.40;;;1.80;;
69985;SDS011;57328;52.054;5.294;2022-07-23T06:16:34;6.18;;;1.63;;
69985;SDS011;57328;52.054;5.294;2022-07-23T06:19:01;4.20;;;1.70;;
69985;SDS011;57328;52.054;5.294;2022-07-23T06:21:29;3.38;;;1.70;;
69985;SDS011;57328;52.054;5.294;2022-07-23T06:24:13;3.65;;;1.73;;
69985;SDS011;57328;52.054;5.294;2022-07-23T06:26:40;1.73;;;1.20;;
69985;SDS011;57328;52.054;5.294;2022-07-23T06:29:07;4.57;;;1.30;;
69985;SDS011;57328;52.054;5.294;2022-07-23T06:31:34;5.93;;;1.10;;
69985;SDS011;57328;52.054;5.294;2022-07-23T06:34:02;3.58;;;1.10;;
69985;SDS011;57328;52.054;5.294;2022-07-23T06:36:29;2.90;;;1.00;;
69985;SDS011;57328;52.054;5.294;2022-07-23T06:38:56;3.67;;;1.25;;
69985;SDS011;57328;52.054;5.294;2022-07-23T06:41:24;3.83;;;1.10;;
69985;SDS011;57328;52.054;5.294;2022-07-23T06:43:51;2.80;;;1.00;;
69985;SDS011;57328;52.054;5.294;2022-07-23T06:46:18;2.00;;;0.90;;
69985;SDS011;57328;52.054;5.294;2022-07-23T06:48:47;5.13;;;1.10;;
69985;SDS011;57328;52.054;5.294;2022-07-23T06:51:14;1.70;;;0.80;;
69985;SDS011;57328;52.054;5.294;2022-07-23T06:53:41;3.58;;;1.10;;
69985;SDS011;57328;52.054;5.294;2022-07-23T06:56:08;3.65;;;0.90;;
69985;SDS011;57328;52.054;5.294;2022-07-23T06:58:36;2.63;;;1.05;;
69985;SDS011;57328;52.054;5.294;2022-07-23T07:01:03;3.45;;;1.02;;
69985;SDS011;57328;52.054;5.294;2022-07-23T07:03:30;2.38;;;0.93;;
69985;SDS011;57328;52.054;5.294;2022-07-23T07:05:57;2.10;;;0.90;;
69985;SDS011;57328;52.054;5.294;2022-07-23T07:08:24;2.03;;;0.82;;
69985;SDS011;57328;52.054;5.294;2022-07-23T07:10:52;2.92;;;0.90;;
69985;SDS011;57328;52.054;5.294;2022-07-23T07:13:19;3.65;;;1.10;;
69985;SDS011;57328;52.054;5.294;2022-07-23T07:15:46;1.95;;;0.90;;
69985;SDS011;57328;52.054;5.294;2022-07-23T07:18:13;3.83;;;1.10;;
69985;SDS011;57328;52.054;5.294;2022-07-23T07:20:40;1.50;;;0.88;;
69985;SDS011;57328;52.054;5.294;2022-07-23T07:23:07;3.45;;;1.00;;
69985;SDS011;57328;52.054;5.294;2022-07-23T07:25:35;3.78;;;1.10;;
69985;SDS011;57328;52.054;5.294;2022-07-23T07:28:02;2.63;;;1.05;;
69985;SDS011;57328;52.054;5.294;2022-07-23T07:30:29;3.97;;;1.13;;
69985;SDS011;57328;52.054;5.294;2022-07-23T07:32:59;3.53;;;1.20;;
69985;SDS011;57328;52.054;5.294;2022-07-23T07:35:26;6.25;;;1.17;;
69985;SDS011;57328;52.054;5.294;2022-07-23T07:40:21;1.75;;;1.02;;
69985;SDS011;57328;52.054;5.294;2022-07-23T07:42:49;3.30;;;1.30;;
69985;SDS011;57328;52.054;5.294;2022-07-23T07:45:17;2.92;;;1.10;;
69985;SDS011;57328;52.054;5.294;2022-07-23T07:47:46;4.18;;;1.02;;
69985;SDS011;57328;52.054;5.294;2022-07-23T07:50:14;3.63;;;1.10;;
69985;SDS011;57328;52.054;5.294;2022-07-23T07:52:41;2.15;;;1.10;;
69985;SDS011;57328;52.054;5.294;2022-07-23T07:55:09;3.47;;;1.50;;
69985;SDS011;57328;52.054;5.294;2022-07-23T07:57:36;3.85;;;1.23;;
69985;SDS011;57328;52.054;5.294;2022-07-23T08:00:05;3.72;;;1.15;;
69985;SDS011;57328;52.054;5.294;2022-07-23T08:02:43;2.38;;;1.00;;
69985;SDS011;57328;52.054;5.294;2022-07-23T08:05:11;4.00;;;1.00;;
69985;SDS011;57328;52.054;5.294;2022-07-23T08:07:38;2.72;;;1.10;;
69985;SDS011;57328;52.054;5.294;2022-07-23T08:10:09;3.28;;;1.02;;
69985;SDS011;57328;52.054;5.294;2022-07-23T08:12:40;1.98;;;0.95;;
69985;SDS011;57328;52.054;5.294;2022-07-23T08:15:08;2.53;;;1.20;;
69985;SDS011;57328;52.054;5.294;2022-07-23T08:17:39;2.67;;;1.02;;
69985;SDS011;57328;52.054;5.294;2022-07-23T08:20:07;3.95;;;1.17;;
69985;SDS011;57328;52.054;5.294;2022-07-23T08:22:46;2.72;;;1.10;;
69985;SDS011;57328;52.054;5.294;2022-07-23T08:25:14;5.25;;;1.20;;
69985;SDS011;57328;52.054;5.294;2022-07-23T08:27:41;4.90;;;1.10;;
69985;SDS011;57328;52.054;5.294;2022-07-23T08:30:08;2.50;;;1.02;;
69985;SDS011;57328;52.054;5.294;2022-07-23T08:32:49;3.38;;;1.10;;
69985;SDS011;57328;52.054;5.294;2022-07-23T08:35:17;2.00;;;0.90;;
69985;SDS011;57328;52.054;5.294;2022-07-23T08:37:44;2.60;;;1.00;;
69985;SDS011;57328;52.054;5.294;2022-07-23T08:40:11;3.53;;;0.93;;
69985;SDS011;57328;52.054;5.294;2022-07-23T08:42:38;4.20;;;1.10;;
69985;SDS011;57328;52.054;5.294;2022-07-23T08:45:06;3.20;;;1.20;;
69985;SDS011;57328;52.054;5.294;2022-07-23T08:47:35;2.60;;;0.90;;
69985;SDS011;57328;52.054;5.294;2022-07-23T08:50:04;1.65;;;1.00;;
69985;SDS011;57328;52.054;5.294;2022-07-23T08:52:33;2.63;;;1.05;;
69985;SDS011;57328;52.054;5.294;2022-07-23T08:57:28;3.10;;;1.20;;
69985;SDS011;57328;52.054;5.294;2022-07-23T08:59:56;3.00;;;1.23;;
69985;SDS011;57328;52.054;5.294;2022-07-23T09:02:23;3.28;;;1.00;;
69985;SDS011;57328;52.054;5.294;2022-07-23T09:04:50;3.55;;;0.98;;
69985;SDS011;57328;52.054;5.294;2022-07-23T09:07:17;2.88;;;1.10;;
69985;SDS011;57328;52.054;5.294;2022-07-23T09:09:45;1.77;;;0.90;;
69985;SDS011;57328;52.054;5.294;2022-07-23T09:12:12;4.80;;;1.10;;
69985;SDS011;57328;52.054;5.294;2022-07-23T09:14:41;3.92;;;1.20;;
69985;SDS011;57328;52.054;5.294;2022-07-23T09:17:27;1.90;;;0.95;;
69985;SDS011;57328;52.054;5.294;2022-07-23T09:19:54;3.40;;;1.33;;
69985;SDS011;57328;52.054;5.294;2022-07-23T09:22:34;1.75;;;1.13;;
69985;SDS011;57328;52.054;5.294;2022-07-23T09:25:06;2.45;;;1.00;;
69985;SDS011;57328;52.054;5.294;2022-07-23T09:30:21;2.75;;;1.05;;
69985;SDS011;57328;52.054;5.294;2022-07-23T09:38:11;2.08;;;0.90;;
69985;SDS011;57328;52.054;5.294;2022-07-23T09:40:39;3.50;;;1.20;;
69985;SDS011;57328;52.054;5.294;2022-07-23T09:43:06;6.43;;;1.50;;
69985;SDS011;57328;52.054;5.294;2022-07-23T09:45:34;1.70;;;0.80;;
69985;SDS011;57328;52.054;5.294;2022-07-23T09:48:11;3.00;;;1.20;;
69985;SDS011;57328;52.054;5.294;2022-07-23T09:50:39;1.92;;;1.33;;
69985;SDS011;57328;52.054;5.294;2022-07-23T09:53:06;4.28;;;1.13;;
69985;SDS011;57328;52.054;5.294;2022-07-23T09:55:35;3.65;;;1.13;;
69985;SDS011;57328;52.054;5.294;2022-07-23T09:58:05;3.65;;;1.48;;
69985;SDS011;57328;52.054;5.294;2022-07-23T10:00:36;4.32;;;1.20;;
69985;SDS011;57328;52.054;5.294;2022-07-23T10:03:03;2.53;;;1.20;;
69985;SDS011;57328;52.054;5.294;2022-07-23T10:05:32;2.85;;;1.10;;
69985;SDS011;57328;52.054;5.294;2022-07-23T10:08:01;2.50;;;1.10;;
69985;SDS011;57328;52.054;5.294;2022-07-23T10:10:29;1.60;;;1.00;;
69985;SDS011;57328;52.054;5.294;2022-07-23T10:12:57;2.25;;;1.02;;
69985;SDS011;57328;52.054;5.294;2022-07-23T10:15:53;2.97;;;1.20;;
69985;SDS011;57328;52.054;5.294;2022-07-23T10:18:22;2.53;;;1.00;;
69985;SDS011;57328;52.054;5.294;2022-07-23T10:20:49;3.25;;;1.25;;
69985;SDS011;57328;52.054;5.294;2022-07-23T10:23:22;2.15;;;1.00;;
69985;SDS011;57328;52.054;5.294;2022-07-23T10:25:55;4.35;;;1.20;;
69985;SDS011;57328;52.054;5.294;2022-07-23T10:33:56;2.72;;;1.20;;
69985;SDS011;57328;52.054;5.294;2022-07-23T10:36:32;3.20;;;1.27;;
69985;SDS011;57328;52.054;5.294;2022-07-23T10:39:05;2.60;;;1.20;;
69985;SDS011;57328;52.054;5.294;2022-07-23T10:41:36;2.50;;;1.17;;
69985;SDS011;57328;52.054;5.294;2022-07-23T10:46:35;3.35;;;1.20;;
69985;SDS011;57328;52.054;5.294;2022-07-23T10:49:24;4.45;;;1.00;;
69985;SDS011;57328;52.054;5.294;2022-07-23T10:54:45;3.00;;;1.27;;
69985;SDS011;57328;52.054;5.294;2022-07-23T10:57:13;2.90;;;1.20;;
69985;SDS011;57328;52.054;5.294;2022-07-23T11:02:28;4.60;;;1.20;;
69985;SDS011;57328;52.054;5.294;2022-07-23T11:04:59;2.25;;;1.15;;
69985;SDS011;57328;52.054;5.294;2022-07-23T11:07:27;3.72;;;1.10;;
69985;SDS011;57328;52.054;5.294;2022-07-23T11:09:54;2.70;;;1.00;;
69985;SDS011;57328;52.054;5.294;2022-07-23T11:15:08;4.40;;;1.40;;
69985;SDS011;57328;52.054;5.294;2022-07-23T11:25:12;2.38;;;1.10;;
69985;SDS011;57328;52.054;5.294;2022-07-23T11:27:40;3.22;;;1.20;;
69985;SDS011;57328;52.054;5.294;2022-07-23T11:30:08;5.18;;;1.70;;
69985;SDS011;57328;52.054;5.294;2022-07-23T11:32:40;3.05;;;1.67;;
69985;SDS011;57328;52.054;5.294;2022-07-23T11:35:18;3.28;;;1.50;;
69985;SDS011;57328;52.054;5.294;2022-07-23T11:37:45;2.67;;;1.10;;
69985;SDS011;57328;52.054;5.294;2022-07-23T11:40:14;3.58;;;1.55;;
69985;SDS011;57328;52.054;5.294;2022-07-23T11:42:52;3.45;;;1.40;;
69985;SDS011;57328;52.054;5.294;2022-07-23T11:45:20;3.35;;;1.40;;
69985;SDS011;57328;52.054;5.294;2022-07-23T11:47:47;3.25;;;1.30;;
69985;SDS011;57328;52.054;5.294;2022-07-23T11:50:14;4.60;;;1.60;;
69985;SDS011;57328;52.054;5.294;2022-07-23T11:52:41;3.05;;;1.40;;
69985;SDS011;57328;52.054;5.294;2022-07-23T11:55:09;3.47;;;1.40;;
69985;SDS011;57328;52.054;5.294;2022-07-23T11:57:43;3.00;;;1.50;;
69985;SDS011;57328;52.054;5.294;2022-07-23T12:02:49;3.33;;;1.50;;
69985;SDS011;57328;52.054;5.294;2022-07-23T12:05:18;3.05;;;1.60;;
69985;SDS011;57328;52.054;5.294;2022-07-23T12:07:46;3.47;;;1.70;;
69985;SDS011;57328;52.054;5.294;2022-07-23T12:15:41;3.47;;;1.60;;
69985;SDS011;57328;52.054;5.294;2022-07-23T12:18:10;3.40;;;1.50;;
69985;SDS011;57328;52.054;5.294;2022-07-23T12:20:38;2.88;;;1.50;;
69985;SDS011;57328;52.054;5.294;2022-07-23T12:23:07;3.33;;;1.60;;
69985;SDS011;57328;52.054;5.294;2022-07-23T12:25:35;5.03;;;1.52;;
69985;SDS011;57328;52.054;5.294;2022-07-23T12:30:36;3.63;;;1.80;;
69985;SDS011;57328;52.054;5.294;2022-07-23T12:33:04;3.28;;;1.77;;
69985;SDS011;57328;52.054;5.294;2022-07-23T12:35:33;4.00;;;1.73;;
69985;SDS011;57328;52.054;5.294;2022-07-23T12:38:01;2.88;;;1.75;;
69985;SDS011;57328;52.054;5.294;2022-07-23T12:40:52;4.15;;;1.77;;
69985;SDS011;57328;52.054;5.294;2022-07-23T12:43:18;4.03;;;1.75;;
69985;SDS011;57328;52.054;5.294;2022-07-23T12:45:50;4.40;;;1.77;;
69985;SDS011;57328;52.054;5.294;2022-07-23T12:48:22;5.45;;;1.90;;
69985;SDS011;57328;52.054;5.294;2022-07-23T12:50:50;5.15;;;1.60;;
69985;SDS011;57328;52.054;5.294;2022-07-23T12:53:18;2.15;;;1.42;;
69985;SDS011;57328;52.054;5.294;2022-07-23T12:55:50;7.10;;;1.98;;
69985;SDS011;57328;52.054;5.294;2022-07-23T12:58:42;3.50;;;2.08;;
69985;SDS011;57328;52.054;5.294;2022-07-23T13:01:13;4.85;;;2.00;;
69985;SDS011;57328;52.054;5.294;2022-07-23T13:06:42;3.40;;;1.73;;
69985;SDS011;57328;52.054;5.294;2022-07-23T13:09:14;3.30;;;1.67;;
69985;SDS011;57328;52.054;5.294;2022-07-23T13:11:42;4.15;;;1.98;;
69985;SDS011;57328;52.054;5.294;2022-07-23T13:14:09;3.53;;;1.73;;
69985;SDS011;57328;52.054;5.294;2022-07-23T13:19:04;3.58;;;1.80;;
69985;SDS011;57328;52.054;5.294;2022-07-23T13:21:36;5.78;;;2.08;;
69985;SDS011;57328;52.054;5.294;2022-07-23T13:24:04;4.82;;;1.85;;
69985;SDS011;57328;52.054;5.294;2022-07-23T13:26:34;4.47;;;2.00;;
69985;SDS011;57328;52.054;5.294;2022-07-23T13:29:03;5.00;;;2.22;;
69985;SDS011;57328;52.054;5.294;2022-07-23T13:31:34;4.03;;;1.95;;
69985;SDS011;57328;52.054;5.294;2022-07-23T13:34:04;2.92;;;1.70;;
69985;SDS011;57328;52.054;5.294;2022-07-23T13:36:33;3.88;;;2.10;;
69985;SDS011;57328;52.054;5.294;2022-07-23T13:39:00;7.97;;;1.90;;
69985;SDS011;57328;52.054;5.294;2022-07-23T13:43:55;4.95;;;2.22;;
69985;SDS011;57328;52.054;5.294;2022-07-23T13:46:23;4.75;;;2.08;;
69985;SDS011;57328;52.054;5.294;2022-07-23T13:48:50;4.20;;;2.00;;
69985;SDS011;57328;52.054;5.294;2022-07-23T13:51:19;5.68;;;1.90;;
69985;SDS011;57328;52.054;5.294;2022-07-23T13:53:47;5.78;;;2.33;;
69985;SDS011;57328;52.054;5.294;2022-07-23T13:56:18;5.13;;;2.00;;
69985;SDS011;57328;52.054;5.294;2022-07-23T13:58:46;4.22;;;2.08;;
69985;SDS011;57328;52.054;5.294;2022-07-23T14:01:14;5.72;;;1.85;;
69985;SDS011;57328;52.054;5.294;2022-07-23T14:03:43;3.15;;;2.08;;
69985;SDS011;57328;52.054;5.294;2022-07-23T14:06:11;3.92;;;1.83;;
69985;SDS011;57328;52.054;5.294;2022-07-23T14:08:41;4.60;;;2.17;;
69985;SDS011;57328;52.054;5.294;2022-07-23T14:11:09;5.13;;;2.22;;
69985;SDS011;57328;52.054;5.294;2022-07-23T14:13:36;5.68;;;2.17;;
69985;SDS011;57328;52.054;5.294;2022-07-23T14:16:04;3.65;;;1.70;;
69985;SDS011;57328;52.054;5.294;2022-07-23T14:18:31;6.22;;;2.30;;
69985;SDS011;57328;52.054;5.294;2022-07-23T14:20:59;4.28;;;1.63;;
69985;SDS011;57328;52.054;5.294;2022-07-23T14:25:54;5.63;;;2.08;;
69985;SDS011;57328;52.054;5.294;2022-07-23T14:28:21;4.72;;;1.95;;
69985;SDS011;57328;52.054;5.294;2022-07-23T14:30:49;3.25;;;1.70;;
69985;SDS011;57328;52.054;5.294;2022-07-23T14:33:17;4.32;;;1.95;;
69985;SDS011;57328;52.054;5.294;2022-07-23T14:35:46;4.60;;;1.90;;
69985;SDS011;57328;52.054;5.294;2022-07-23T14:38:13;3.45;;;2.00;;
69985;SDS011;57328;52.054;5.294;2022-07-23T14:40:41;4.72;;;2.05;;
69985;SDS011;57328;52.054;5.294;2022-07-23T14:43:08;3.38;;;2.03;;
69985;SDS011;57328;52.054;5.294;2022-07-23T14:45:37;2.80;;;1.90;;
69985;SDS011;57328;52.054;5.294;2022-07-23T14:48:04;4.38;;;2.10;;
69985;SDS011;57328;52.054;5.294;2022-07-23T14:50:33;5.40;;;2.67;;
69985;SDS011;57328;52.054;5.294;2022-07-23T14:53:01;5.65;;;2.47;;
69985;SDS011;57328;52.054;5.294;2022-07-23T14:55:30;3.90;;;2.13;;
69985;SDS011;57328;52.054;5.294;2022-07-23T14:57:57;6.47;;;2.30;;
69985;SDS011;57328;52.054;5.294;2022-07-23T15:00:26;5.72;;;2.55;;
69985;SDS011;57328;52.054;5.294;2022-07-23T15:02:53;6.05;;;2.30;;
69985;SDS011;57328;52.054;5.294;2022-07-23T15:05:21;4.75;;;2.13;;
69985;SDS011;57328;52.054;5.294;2022-07-23T15:07:50;5.72;;;2.20;;
69985;SDS011;57328;52.054;5.294;2022-07-23T15:10:29;5.30;;;1.98;;
69985;SDS011;57328;52.054;5.294;2022-07-23T15:12:56;5.28;;;1.90;;
69985;SDS011;57328;52.054;5.294;2022-07-23T15:15:35;3.50;;;1.98;;
69985;SDS011;57328;52.054;5.294;2022-07-23T15:20:44;4.32;;;1.80;;
69985;SDS011;57328;52.054;5.294;2022-07-23T15:23:13;3.05;;;1.70;;
69985;SDS011;57328;52.054;5.294;2022-07-23T15:25:42;4.28;;;1.65;;
69985;SDS011;57328;52.054;5.294;2022-07-23T15:28:16;4.32;;;1.98;;
69985;SDS011;57328;52.054;5.294;2022-07-23T15:30:47;3.22;;;1.70;;
69985;SDS011;57328;52.054;5.294;2022-07-23T15:33:15;4.30;;;2.00;;
69985;SDS011;57328;52.054;5.294;2022-07-23T15:35:47;6.82;;;1.90;;
69985;SDS011;57328;52.054;5.294;2022-07-23T15:38:14;3.97;;;1.77;;
69985;SDS011;57328;52.054;5.294;2022-07-23T15:40:50;6.20;;;1.80;;
69985;SDS011;57328;52.054;5.294;2022-07-23T15:43:17;4.03;;;2.03;;
69985;SDS011;57328;52.054;5.294;2022-07-23T15:45:45;4.95;;;1.73;;
69985;SDS011;57328;52.054;5.294;2022-07-23T15:48:12;6.22;;;1.92;;
69985;SDS011;57328;52.054;5.294;2022-07-23T15:50:40;3.85;;;1.83;;
69985;SDS011;57328;52.054;5.294;2022-07-23T15:53:11;5.55;;;2.10;;
69985;SDS011;57328;52.054;5.294;2022-07-23T15:55:41;4.93;;;1.88;;
69985;SDS011;57328;52.054;5.294;2022-07-23T15:58:12;4.18;;;1.95;;
69985;SDS011;57328;52.054;5.294;2022-07-23T16:00:40;4.60;;;1.92;;
69985;SDS011;57328;52.054;5.294;2022-07-23T16:09:01;5.63;;;2.03;;
69985;SDS011;57328;52.054;5.294;2022-07-23T16:11:30;3.17;;;1.92;;
69985;SDS011;57328;52.054;5.294;2022-07-23T16:13:58;3.65;;;1.95;;
69985;SDS011;57328;52.054;5.294;2022-07-23T16:16:25;4.18;;;2.10;;